createdAt,value
2022-11-22T00:00:49.421Z,83.80
2022-11-22T00:01:49.425Z,84.00
2022-11-22T00:02:49.430Z,84.14
2022-11-22T00:03:49.372Z,84.14
2022-11-22T00:04:49.366Z,84.77
2022-11-22T00:05:49.362Z,83.73
2022-11-22T00:06:49.335Z,84.98
2022-11-22T00:07:49.425Z,84.81
2022-11-22T00:08:49.325Z,84.70
2022-11-22T00:09:49.305Z,83.73
2022-11-22T00:10:49.309Z,84.04
2022-11-22T00:11:49.284Z,82.89
2022-11-22T00:12:49.276Z,83.20
2022-11-22T00:13:49.319Z,83.20
2022-11-22T00:14:53.934Z,84.25
2022-11-22T00:15:50.254Z,85.50
2022-11-22T00:16:49.232Z,85.43
2022-11-22T00:17:49.216Z,84.18
2022-11-22T00:18:49.206Z,84.77
2022-11-22T00:19:49.273Z,86.22
2022-11-22T00:20:49.196Z,85.81
2022-11-22T00:21:49.179Z,83.73
2022-11-22T00:22:49.171Z,82.34
2022-11-22T00:23:49.178Z,82.48
2022-11-22T00:24:49.144Z,83.10
2022-11-22T00:25:49.136Z,83.42
2022-11-22T00:26:49.132Z,82.54
2022-11-22T00:27:49.128Z,82.58
2022-11-22T00:28:49.107Z,82.86
2022-11-22T00:29:49.094Z,83.80
2022-11-22T00:30:49.079Z,84.31
2022-11-22T00:31:49.155Z,83.17
2022-11-22T00:32:49.095Z,83.90
2022-11-22T00:33:49.048Z,83.90
2022-11-22T00:34:49.059Z,83.48
2022-11-22T00:35:49.034Z,83.90
2022-11-22T00:36:49.020Z,83.80
2022-11-22T00:37:49.103Z,83.90
2022-11-22T00:38:49.002Z,85.56
2022-11-22T00:39:49.005Z,86.40
2022-11-22T00:40:48.971Z,85.88
2022-11-22T00:41:48.960Z,86.40
2022-11-22T00:42:48.951Z,85.71
2022-11-22T00:43:48.990Z,84.42
2022-11-22T00:44:48.928Z,84.00
2022-11-22T00:45:48.944Z,84.11
2022-11-22T00:46:48.908Z,82.86
2022-11-22T00:47:48.898Z,82.75
2022-11-22T00:48:48.885Z,82.44
2022-11-22T00:49:49.044Z,83.06
2022-11-22T00:50:48.867Z,82.40
2022-11-22T00:51:48.855Z,81.26
2022-11-22T00:52:48.845Z,81.15
2022-11-22T00:53:48.834Z,81.26
2022-11-22T00:54:54.466Z,81.36
2022-11-22T00:55:49.907Z,82.30
2022-11-22T00:56:48.800Z,81.46
2022-11-22T00:57:48.789Z,84.06
2022-11-22T00:58:48.777Z,83.44
2022-11-22T00:59:48.875Z,83.96
2022-11-22T01:00:53.406Z,84.83
2022-11-22T01:01:49.798Z,82.75
2022-11-22T01:02:48.736Z,81.26
2022-11-22T01:03:48.720Z,83.86
2022-11-22T01:04:48.713Z,82.20
2022-11-22T01:05:48.711Z,84.06
2022-11-22T01:06:48.691Z,84.38
2022-11-22T01:07:48.787Z,83.34
2022-11-22T01:08:48.668Z,80.94
2022-11-22T01:09:48.663Z,82.30
2022-11-22T01:10:48.652Z,82.82
2022-11-22T01:11:48.680Z,83.09
2022-11-22T01:12:48.625Z,83.37
2022-11-22T01:13:48.622Z,81.98
2022-11-22T01:14:48.605Z,82.30
2022-11-22T01:15:48.595Z,83.13
2022-11-22T01:16:48.581Z,82.82
2022-11-22T01:17:48.585Z,83.23
2022-11-22T01:18:48.559Z,83.75
2022-11-22T01:19:48.615Z,83.44
2022-11-22T01:20:48.538Z,82.40
2022-11-22T01:21:48.532Z,82.82
2022-11-22T01:22:48.528Z,82.51
2022-11-22T01:23:48.504Z,83.86
2022-11-22T01:24:48.496Z,83.44
2022-11-22T01:25:48.511Z,84.59
2022-11-22T01:26:48.470Z,83.48
2022-11-22T01:27:48.501Z,83.65
2022-11-22T01:28:48.457Z,83.65
2022-11-22T01:29:48.445Z,82.96
2022-11-22T01:30:48.446Z,82.51
2022-11-22T01:31:48.488Z,82.71
2022-11-22T01:32:48.417Z,84.11
2022-11-22T01:33:48.398Z,84.59
2022-11-22T01:34:48.385Z,82.75
2022-11-22T01:35:48.437Z,82.96
2022-11-22T01:36:48.372Z,84.21
2022-11-22T01:37:48.367Z,84.11
2022-11-22T01:38:48.411Z,83.86
2022-11-22T01:39:48.332Z,83.69
2022-11-22T01:40:48.324Z,82.40
2022-11-22T01:41:48.311Z,83.96
2022-11-22T01:42:48.316Z,83.54
2022-11-22T01:43:48.379Z,83.75
2022-11-22T01:44:48.279Z,83.13
2022-11-22T01:45:48.269Z,83.03
2022-11-22T01:46:48.258Z,83.03
2022-11-22T01:47:48.259Z,83.96
2022-11-22T01:48:48.237Z,85.83
2022-11-22T01:49:48.280Z,84.06
2022-11-22T01:50:48.219Z,81.15
2022-11-22T01:51:48.210Z,82.40
2022-11-22T01:52:48.194Z,82.20
2022-11-22T01:53:48.194Z,82.71
2022-11-22T01:54:48.182Z,83.61
2022-11-22T01:55:48.198Z,82.82
2022-11-22T01:56:48.155Z,81.67
2022-11-22T01:57:48.138Z,82.40
2022-11-22T01:58:48.126Z,83.03
2022-11-22T01:59:48.316Z,83.03
2022-11-22T02:00:48.173Z,82.51
2022-11-22T02:01:48.098Z,83.65
2022-11-22T02:02:48.084Z,84.59
2022-11-22T02:03:48.075Z,83.86
2022-11-22T02:04:48.063Z,83.96
2022-11-22T02:05:48.067Z,83.96
2022-11-22T02:06:48.039Z,83.96
2022-11-22T02:07:48.144Z,83.96
2022-11-22T02:08:48.039Z,84.00
2022-11-22T02:09:48.025Z,84.00
2022-11-22T02:10:48.008Z,83.48
2022-11-22T02:11:47.997Z,83.90
2022-11-22T02:12:47.978Z,83.90
2022-11-22T02:13:48.072Z,84.00
2022-11-22T02:14:47.957Z,84.83
2022-11-22T02:15:47.966Z,84.63
2022-11-22T02:16:47.935Z,85.35
2022-11-22T02:17:47.943Z,84.83
2022-11-22T02:18:47.910Z,85.08
2022-11-22T02:19:47.951Z,85.91
2022-11-22T02:20:47.890Z,85.56
2022-11-22T02:21:47.875Z,86.29
2022-11-22T02:22:47.872Z,86.71
2022-11-22T02:23:47.862Z,86.40
2022-11-22T02:24:47.844Z,85.98
2022-11-22T02:25:47.895Z,84.87
2022-11-22T02:26:47.819Z,84.87
2022-11-22T02:27:47.821Z,83.80
2022-11-22T02:28:47.802Z,83.37
2022-11-22T02:29:47.793Z,83.69
2022-11-22T02:30:47.783Z,84.73
2022-11-22T02:31:47.823Z,85.67
2022-11-22T02:32:47.766Z,86.50
2022-11-22T02:33:47.752Z,84.52
2022-11-22T02:34:47.732Z,84.56
2022-11-22T02:35:47.727Z,86.12
2022-11-22T02:36:47.727Z,86.33
2022-11-22T02:37:47.710Z,84.52
2022-11-22T02:38:47.705Z,84.42
2022-11-22T02:39:47.685Z,83.42
2022-11-22T02:40:47.670Z,82.17
2022-11-22T02:41:47.688Z,82.58
2022-11-22T02:42:47.659Z,82.79
2022-11-22T02:43:47.649Z,82.06
2022-11-22T02:44:47.626Z,82.37
2022-11-22T02:45:47.621Z,83.10
2022-11-22T02:46:47.611Z,83.52
2022-11-22T02:47:47.633Z,83.42
2022-11-22T02:48:47.593Z,83.62
2022-11-22T02:49:47.627Z,83.83
2022-11-22T02:50:47.561Z,84.14
2022-11-22T02:51:47.560Z,83.62
2022-11-22T02:52:47.565Z,84.08
2022-11-22T02:53:47.528Z,83.42
2022-11-22T02:54:47.518Z,84.45
2022-11-22T02:55:47.516Z,83.83
2022-11-22T02:56:47.497Z,83.62
2022-11-22T02:57:47.487Z,84.66
2022-11-22T02:58:47.486Z,84.25
2022-11-22T02:59:47.464Z,83.83
2022-11-22T03:00:47.500Z,84.94
2022-11-22T03:01:47.502Z,84.66
2022-11-22T03:02:47.432Z,84.56
2022-11-22T03:03:47.456Z,84.25
2022-11-22T03:04:47.410Z,83.94
2022-11-22T03:05:47.400Z,84.25
2022-11-22T03:06:47.387Z,84.66
2022-11-22T03:07:47.515Z,85.91
2022-11-22T03:08:50.762Z,85.08
2022-11-22T03:09:48.352Z,84.87
2022-11-22T03:10:47.344Z,85.29
2022-11-22T03:11:47.356Z,84.04
2022-11-22T03:12:47.323Z,84.45
2022-11-22T03:13:47.318Z,84.35
2022-11-22T03:14:47.311Z,83.94
2022-11-22T03:15:47.295Z,83.87
2022-11-22T03:16:47.276Z,85.12
2022-11-22T03:17:47.279Z,84.25
2022-11-22T03:18:47.254Z,84.66
2022-11-22T03:19:47.278Z,84.91
2022-11-22T03:20:47.247Z,84.60
2022-11-22T03:21:47.230Z,84.28
2022-11-22T03:22:47.214Z,85.08
2022-11-22T03:23:47.208Z,86.27
2022-11-22T03:24:47.211Z,84.81
2022-11-22T03:25:47.212Z,85.22
2022-11-22T03:26:47.174Z,84.81
2022-11-22T03:27:47.160Z,85.12
2022-11-22T03:28:47.146Z,85.02
2022-11-22T03:29:47.137Z,85.02
2022-11-22T03:30:47.141Z,85.74
2022-11-22T03:31:47.179Z,85.74
2022-11-22T03:32:47.101Z,86.30
2022-11-22T03:33:47.113Z,85.22
2022-11-22T03:34:47.085Z,84.60
2022-11-22T03:35:47.101Z,85.43
2022-11-22T03:36:47.081Z,85.96
2022-11-22T03:37:47.059Z,86.37
2022-11-22T03:38:47.046Z,87.10
2022-11-22T03:39:47.027Z,88.29
2022-11-22T03:40:47.020Z,89.64
2022-11-22T03:41:47.010Z,90.26
2022-11-22T03:42:47.011Z,91.00
2022-11-22T03:43:47.043Z,91.31
2022-11-22T03:44:46.977Z,92.03
2022-11-22T03:45:46.980Z,91.52
2022-11-22T03:46:46.963Z,92.29
2022-11-22T03:47:46.951Z,92.08
2022-11-22T03:48:46.944Z,92.81
2022-11-22T03:49:46.985Z,93.18
2022-11-22T03:50:46.911Z,93.65
2022-11-22T03:51:46.925Z,94.23
2022-11-22T03:52:46.895Z,94.37
2022-11-22T03:53:46.879Z,95.52
2022-11-22T03:54:46.865Z,95.62
2022-11-22T03:55:46.883Z,95.62
2022-11-22T03:56:46.934Z,96.46
2022-11-22T03:57:46.833Z,97.03
2022-11-22T03:58:46.823Z,97.34
2022-11-22T03:59:46.812Z,97.34
2022-11-22T04:00:46.804Z,97.65
2022-11-22T04:01:46.903Z,97.75
2022-11-22T04:02:46.797Z,97.97
2022-11-22T04:03:46.981Z,98.32
2022-11-22T04:04:46.761Z,98.63
2022-11-22T04:05:46.751Z,98.68
2022-11-22T04:06:46.751Z,99.89
2022-11-22T04:07:46.852Z,99.99
2022-11-22T04:08:46.825Z,99.99
2022-11-22T04:09:46.708Z,99.99
2022-11-22T04:10:46.695Z,99.99
2022-11-22T04:11:46.703Z,99.99
2022-11-22T04:12:46.673Z,99.99
2022-11-22T04:13:46.710Z,99.99
2022-11-22T04:14:46.741Z,99.99
2022-11-22T04:15:46.642Z,99.99
2022-11-22T04:16:46.640Z,99.99
2022-11-22T04:17:46.615Z,99.99
2022-11-22T04:18:46.609Z,99.99
2022-11-22T04:19:46.683Z,99.99
2022-11-22T04:20:46.598Z,99.99
2022-11-22T04:21:46.573Z,99.99
2022-11-22T04:22:46.564Z,99.99
2022-11-22T04:23:46.581Z,99.99
2022-11-22T04:24:46.555Z,99.99
2022-11-22T04:25:46.593Z,99.99
2022-11-22T04:26:46.520Z,99.99
2022-11-22T04:27:46.514Z,99.99
2022-11-22T04:29:08.794Z,99.99
2022-11-22T04:29:47.501Z,99.99
2022-11-22T04:30:46.476Z,99.99
2022-11-22T04:31:46.515Z,99.99
2022-11-22T04:32:46.454Z,99.99
2022-11-22T04:33:46.455Z,99.99
2022-11-22T04:34:46.441Z,99.99
2022-11-22T04:35:46.426Z,99.99
2022-11-22T04:36:46.494Z,99.99
2022-11-22T04:37:46.420Z,99.99
2022-11-22T04:38:46.392Z,99.99
2022-11-22T04:39:46.404Z,99.99
2022-11-22T04:40:46.368Z,99.99
2022-11-22T04:41:46.410Z,99.99
2022-11-22T04:42:46.346Z,99.99
2022-11-22T04:43:46.344Z,99.99
2022-11-22T04:44:46.323Z,99.99
2022-11-22T04:45:46.317Z,99.99
2022-11-22T04:46:46.304Z,99.99
2022-11-22T04:47:50.318Z,99.99
2022-11-22T04:48:46.344Z,99.99
2022-11-22T04:49:46.299Z,99.99
2022-11-22T04:50:46.260Z,99.99
2022-11-22T04:51:46.251Z,99.99
2022-11-22T04:52:46.238Z,99.99
2022-11-22T04:53:46.467Z,99.99
2022-11-22T04:54:46.217Z,99.99
2022-11-22T04:55:46.237Z,99.99
2022-11-22T04:56:46.202Z,99.99
2022-11-22T04:57:46.192Z,99.99
2022-11-22T04:58:46.211Z,99.99
2022-11-22T04:59:46.258Z,99.99
2022-11-22T05:00:46.215Z,99.99
2022-11-22T05:01:46.146Z,99.99
2022-11-22T05:02:46.130Z,99.99
2022-11-22T05:03:46.118Z,99.99
2022-11-22T05:04:50.450Z,99.99
2022-11-22T05:05:46.179Z,99.99
2022-11-22T05:06:46.092Z,99.99
2022-11-22T05:07:46.140Z,99.99
2022-11-22T05:08:46.065Z,99.99
2022-11-22T05:09:46.059Z,99.99
2022-11-22T05:10:46.046Z,99.99
2022-11-22T05:11:46.107Z,99.99
2022-11-22T05:12:46.022Z,99.99
2022-11-22T05:13:46.017Z,99.99
2022-11-22T05:14:46.001Z,99.99
2022-11-22T05:15:46.002Z,99.99
2022-11-22T05:16:46.089Z,99.99
2022-11-22T05:17:46.011Z,99.99
2022-11-22T05:18:45.961Z,99.99
2022-11-22T05:19:49.173Z,99.99
2022-11-22T05:20:45.940Z,99.99
2022-11-22T05:21:45.927Z,99.99
2022-11-22T05:22:45.932Z,99.99
2022-11-22T05:23:45.987Z,99.99
2022-11-22T05:24:45.895Z,99.99
2022-11-22T05:25:45.886Z,99.99
2022-11-22T05:26:45.888Z,99.99
2022-11-22T05:27:45.891Z,99.99
2022-11-22T05:28:45.853Z,99.99
2022-11-22T05:29:45.891Z,99.99
2022-11-22T05:30:45.828Z,99.99
2022-11-22T05:31:51.175Z,99.99
2022-11-22T05:32:46.824Z,99.99
2022-11-22T05:33:45.799Z,99.99
2022-11-22T05:34:45.789Z,99.99
2022-11-22T05:35:45.883Z,99.99
2022-11-22T05:36:45.767Z,99.99
2022-11-22T05:37:45.753Z,99.99
2022-11-22T05:38:45.754Z,99.99
2022-11-22T05:39:45.728Z,99.99
2022-11-22T05:40:45.727Z,99.99
2022-11-22T05:41:45.768Z,99.99
2022-11-22T05:42:45.699Z,99.99
2022-11-22T05:43:45.728Z,99.99
2022-11-22T05:44:45.673Z,99.99
2022-11-22T05:45:45.665Z,99.99
2022-11-22T05:46:45.656Z,99.99
2022-11-22T05:47:45.739Z,99.99
2022-11-22T05:48:45.651Z,99.99
2022-11-22T05:49:45.618Z,99.99
2022-11-22T05:50:45.607Z,99.99
2022-11-22T05:51:45.598Z,99.99
2022-11-22T05:52:45.588Z,99.99
2022-11-22T05:53:45.663Z,99.99
2022-11-22T05:54:45.573Z,99.99
2022-11-22T05:55:45.553Z,99.99
2022-11-22T05:56:45.546Z,99.99
2022-11-22T05:57:45.529Z,99.99
2022-11-22T05:58:45.523Z,99.99
2022-11-22T05:59:45.546Z,99.99
2022-11-22T06:00:45.515Z,99.99
2022-11-22T06:01:45.548Z,99.99
2022-11-22T06:02:45.479Z,99.99
2022-11-22T06:03:45.464Z,99.99
2022-11-22T06:04:45.451Z,99.99
2022-11-22T06:05:45.465Z,99.99
2022-11-22T06:06:45.433Z,99.99
2022-11-22T06:07:45.532Z,99.99
2022-11-22T06:08:45.407Z,99.99
2022-11-22T06:09:45.398Z,99.99
2022-11-22T06:10:45.385Z,99.99
2022-11-22T06:11:45.460Z,99.99
2022-11-22T06:12:45.367Z,99.99
2022-11-22T06:13:45.352Z,99.99
2022-11-22T06:14:45.345Z,99.99
2022-11-22T06:15:45.362Z,99.99
2022-11-22T06:16:45.321Z,99.99
2022-11-22T06:17:45.435Z,99.99
2022-11-22T06:18:45.333Z,99.99
2022-11-22T06:19:45.303Z,99.99
2022-11-22T06:20:45.285Z,99.99
2022-11-22T06:21:45.272Z,99.99
2022-11-22T06:22:45.319Z,99.99
2022-11-22T06:23:45.263Z,99.99
2022-11-22T06:24:45.238Z,99.99
2022-11-22T06:25:45.334Z,99.99
2022-11-22T06:26:45.219Z,99.99
2022-11-22T06:27:45.224Z,99.99
2022-11-22T06:28:45.189Z,99.99
2022-11-22T06:29:45.182Z,99.99
2022-11-22T06:30:45.240Z,99.99
2022-11-22T06:31:45.181Z,99.99
2022-11-22T06:32:45.152Z,99.99
2022-11-22T06:33:45.148Z,99.99
2022-11-22T06:34:45.129Z,99.99
2022-11-22T06:35:45.120Z,99.99
2022-11-22T06:36:45.188Z,99.99
2022-11-22T06:37:45.098Z,99.99
2022-11-22T06:38:45.108Z,99.99
2022-11-22T06:39:45.074Z,99.99
2022-11-22T06:40:45.068Z,99.99
2022-11-22T06:41:45.058Z,99.99
2022-11-22T06:42:45.067Z,99.99
2022-11-22T06:43:48.640Z,99.99
2022-11-22T06:44:45.027Z,99.99
2022-11-22T06:45:45.009Z,99.99
2022-11-22T06:46:45.001Z,99.99
2022-11-22T06:47:45.009Z,99.99
2022-11-22T06:48:45.067Z,99.99
2022-11-22T06:49:44.965Z,99.99
2022-11-22T06:50:44.951Z,99.99
2022-11-22T06:51:44.946Z,99.99
2022-11-22T06:52:44.928Z,99.99
2022-11-22T06:53:47.743Z,99.99
2022-11-22T06:54:44.993Z,99.99
2022-11-22T06:55:55.662Z,99.99
2022-11-22T06:56:45.886Z,99.99
2022-11-22T06:57:44.872Z,99.99
2022-11-22T06:58:44.867Z,99.99
2022-11-22T06:59:44.854Z,99.99
2022-11-22T07:00:45.090Z,99.99
2022-11-22T07:01:44.916Z,99.99
2022-11-22T07:02:44.814Z,99.99
2022-11-22T07:03:44.834Z,99.99
2022-11-22T07:05:02.620Z,99.99
2022-11-22T07:05:45.798Z,99.99
2022-11-22T07:06:44.781Z,99.99
2022-11-22T07:07:44.880Z,99.99
2022-11-22T07:08:44.756Z,99.99
2022-11-22T07:09:44.743Z,99.99
2022-11-22T07:10:44.754Z,99.99
2022-11-22T07:11:44.719Z,99.99
2022-11-22T07:12:44.743Z,99.99
2022-11-22T07:13:44.709Z,99.99
2022-11-22T07:14:44.690Z,99.99
2022-11-22T07:15:44.675Z,99.99
2022-11-22T07:16:44.775Z,99.99
2022-11-22T07:17:44.654Z,99.99
2022-11-22T07:18:44.727Z,99.99
2022-11-22T07:19:44.679Z,99.99
2022-11-22T07:20:44.626Z,99.99
2022-11-22T07:21:44.614Z,99.99
2022-11-22T07:22:44.615Z,99.99
2022-11-22T07:23:44.597Z,99.99
2022-11-22T07:24:44.614Z,99.99
2022-11-22T07:25:44.570Z,99.99
2022-11-22T07:26:44.585Z,99.99
2022-11-22T07:27:44.545Z,99.99
2022-11-22T07:28:44.538Z,99.99
2022-11-22T07:29:44.533Z,99.99
2022-11-22T07:30:44.645Z,99.99
2022-11-22T07:31:44.501Z,99.99
2022-11-22T07:32:44.510Z,99.99
2022-11-22T07:33:44.489Z,99.99
2022-11-22T07:34:44.472Z,99.99
2022-11-22T07:35:44.481Z,99.99
2022-11-22T07:36:44.452Z,99.99
2022-11-22T07:37:44.437Z,99.99
2022-11-22T07:38:44.435Z,99.99
2022-11-22T07:39:44.428Z,99.99
2022-11-22T07:40:44.404Z,99.99
2022-11-22T07:41:44.395Z,99.99
2022-11-22T07:42:44.453Z,99.99
2022-11-22T07:43:44.375Z,99.99
2022-11-22T07:44:44.362Z,99.99
2022-11-22T07:45:44.361Z,99.99
2022-11-22T07:46:44.343Z,99.99
2022-11-22T07:47:44.404Z,99.99
2022-11-22T07:48:44.324Z,99.99
2022-11-22T07:49:44.317Z,99.99
2022-11-22T07:50:44.363Z,99.99
2022-11-22T07:51:44.310Z,99.99
2022-11-22T07:52:44.273Z,99.99
2022-11-22T07:53:44.263Z,99.99
2022-11-22T07:54:44.253Z,99.99
2022-11-22T07:55:44.255Z,99.99
2022-11-22T07:56:44.229Z,99.99
2022-11-22T07:57:44.285Z,99.99
2022-11-22T07:58:44.417Z,99.99
2022-11-22T07:59:44.197Z,99.99
2022-11-22T08:00:44.460Z,99.99
2022-11-22T08:01:44.246Z,99.99
2022-11-22T08:02:44.159Z,99.99
2022-11-22T08:03:44.168Z,99.99
2022-11-22T08:04:44.137Z,99.99
2022-11-22T08:05:44.231Z,99.99
2022-11-22T08:06:44.123Z,99.99
2022-11-22T08:07:44.350Z,99.99
2022-11-22T08:08:44.096Z,99.99
2022-11-22T08:09:44.096Z,99.99
2022-11-22T08:10:44.087Z,99.99
2022-11-22T08:11:44.146Z,99.99
2022-11-22T08:12:44.053Z,99.99
2022-11-22T08:13:44.052Z,99.99
2022-11-22T08:14:44.034Z,99.99
2022-11-22T08:15:44.032Z,99.99
2022-11-22T08:16:44.008Z,99.99
2022-11-22T08:17:44.113Z,99.99
2022-11-22T08:18:43.989Z,99.99
2022-11-22T08:19:43.981Z,99.99
2022-11-22T08:20:43.965Z,99.99
2022-11-22T08:21:43.965Z,99.99
2022-11-22T08:22:43.955Z,99.99
2022-11-22T08:23:44.071Z,99.99
2022-11-22T08:24:43.922Z,99.99
2022-11-22T08:25:43.919Z,99.99
2022-11-22T08:26:43.900Z,99.99
2022-11-22T08:27:43.909Z,99.99
2022-11-22T08:28:43.881Z,99.99
2022-11-22T08:29:43.951Z,99.99
2022-11-22T08:30:43.859Z,99.99
2022-11-22T08:31:43.846Z,99.99
2022-11-22T08:32:43.835Z,99.99
2022-11-22T08:33:43.832Z,99.99
2022-11-22T08:34:47.152Z,99.99
2022-11-22T08:35:43.868Z,99.99
2022-11-22T08:36:43.803Z,99.99
2022-11-22T08:37:43.781Z,99.99
2022-11-22T08:38:43.788Z,99.99
2022-11-22T08:39:43.893Z,99.99
2022-11-22T08:40:43.746Z,99.99
2022-11-22T08:41:43.806Z,99.99
2022-11-22T08:42:43.735Z,99.99
2022-11-22T08:43:43.722Z,99.99
2022-11-22T08:44:43.703Z,99.99
2022-11-22T08:45:43.697Z,99.99
2022-11-22T08:46:43.710Z,99.99
2022-11-22T08:47:43.733Z,99.99
2022-11-22T08:48:43.660Z,99.99
2022-11-22T08:49:43.653Z,99.99
2022-11-22T08:50:43.640Z,99.99
2022-11-22T08:51:43.630Z,99.99
2022-11-22T08:52:43.629Z,99.99
2022-11-22T08:53:43.691Z,99.99
2022-11-22T08:54:43.597Z,99.99
2022-11-22T08:55:43.704Z,99.99
2022-11-22T08:56:43.583Z,99.99
2022-11-22T08:57:43.579Z,99.99
2022-11-22T08:58:43.697Z,99.99
2022-11-22T08:59:43.696Z,99.99
2022-11-22T09:00:43.534Z,99.99
2022-11-22T09:01:43.634Z,99.99
2022-11-22T09:02:43.510Z,99.99
2022-11-22T09:03:43.500Z,99.99
2022-11-22T09:04:43.492Z,99.99
2022-11-22T09:08:49.214Z,99.99
2022-11-22T09:09:44.982Z,99.99
2022-11-22T09:10:43.422Z,99.99
2022-11-22T09:11:43.573Z,99.99
2022-11-22T09:12:43.411Z,99.99
2022-11-22T09:13:43.392Z,99.99
2022-11-22T09:14:43.384Z,99.99
2022-11-22T09:15:43.375Z,99.99
2022-11-22T09:16:43.359Z,99.99
2022-11-22T09:17:43.422Z,99.99
2022-11-22T09:18:43.352Z,99.99
2022-11-22T09:19:43.323Z,99.99
2022-11-22T09:20:43.317Z,99.99
2022-11-22T09:21:43.418Z,99.99
2022-11-22T09:22:43.297Z,99.99
2022-11-22T09:23:43.343Z,99.99
2022-11-22T09:24:43.271Z,99.99
2022-11-22T09:25:43.265Z,99.99
2022-11-22T09:26:43.251Z,99.99
2022-11-22T09:27:43.378Z,99.99
2022-11-22T09:28:43.229Z,99.99
2022-11-22T09:29:43.216Z,99.99
2022-11-22T09:30:43.290Z,99.99
2022-11-22T09:31:43.202Z,99.99
2022-11-22T09:32:43.185Z,99.99
2022-11-22T09:33:43.224Z,99.99
2022-11-22T09:34:43.168Z,98.58
2022-11-22T09:35:43.150Z,98.37
2022-11-22T09:36:43.164Z,99.10
2022-11-22T09:37:43.131Z,98.58
2022-11-22T09:38:43.183Z,98.43
2022-11-22T09:39:48.089Z,98.05
2022-11-22T09:40:44.092Z,97.74
2022-11-22T09:41:43.093Z,98.53
2022-11-22T09:42:43.087Z,99.41
2022-11-22T09:43:43.215Z,98.43
2022-11-22T09:44:43.127Z,98.11
2022-11-22T09:45:43.045Z,97.74
2022-11-22T09:46:43.034Z,96.34
2022-11-22T09:47:43.024Z,95.86
2022-11-22T09:48:43.023Z,95.55
2022-11-22T09:49:43.002Z,96.17
2022-11-22T09:50:43.054Z,96.55
2022-11-22T09:51:42.979Z,97.17
2022-11-22T09:52:42.965Z,97.01
2022-11-22T09:53:42.955Z,95.65
2022-11-22T09:54:42.966Z,95.76
2022-11-22T09:55:42.943Z,96.34
2022-11-22T09:56:43.007Z,96.28
2022-11-22T09:57:42.924Z,96.49
2022-11-22T09:58:42.905Z,95.55
2022-11-22T09:59:42.927Z,94.61
2022-11-22T10:00:46.460Z,95.55
2022-11-22T10:01:44.037Z,97.32
2022-11-22T10:02:59.243Z,95.76
2022-11-22T10:03:43.864Z,93.57
2022-11-22T10:04:42.842Z,93.94
2022-11-22T10:05:42.827Z,94.40
2022-11-22T10:06:42.822Z,92.63
2022-11-22T10:07:42.900Z,96.17
2022-11-22T10:08:42.861Z,96.80
2022-11-22T10:09:42.790Z,98.79
2022-11-22T10:10:42.779Z,98.68
2022-11-22T10:11:42.765Z,98.26
2022-11-22T10:12:42.753Z,98.05
2022-11-22T10:13:42.744Z,97.74
2022-11-22T10:14:42.810Z,97.91
2022-11-22T10:15:42.842Z,96.80
2022-11-22T10:16:42.713Z,96.59
2022-11-22T10:17:42.702Z,96.43
2022-11-22T10:18:42.701Z,94.92
2022-11-22T10:19:42.688Z,95.44
2022-11-22T10:20:48.459Z,96.59
2022-11-22T10:21:43.660Z,96.11
2022-11-22T10:22:42.647Z,92.52
2022-11-22T10:23:42.639Z,90.85
2022-11-22T10:24:42.629Z,92.31
2022-11-22T10:25:42.623Z,93.73
2022-11-22T10:26:42.660Z,93.04
2022-11-22T10:27:42.598Z,93.77
2022-11-22T10:28:42.579Z,93.41
2022-11-22T10:29:42.568Z,94.61
2022-11-22T10:30:42.561Z,92.83
2022-11-22T10:31:42.682Z,93.04
2022-11-22T10:32:42.604Z,92.52
2022-11-22T10:33:44.583Z,93.15
2022-11-22T10:34:42.528Z,92.41
2022-11-22T10:35:42.508Z,91.89
2022-11-22T10:36:42.509Z,88.24
2022-11-22T10:37:42.485Z,89.24
2022-11-22T10:38:42.476Z,88.82
2022-11-22T10:39:42.464Z,87.47
2022-11-22T10:40:42.617Z,90.50
2022-11-22T10:41:42.445Z,91.39
2022-11-22T10:42:42.430Z,92.79
2022-11-22T10:43:42.416Z,95.29
2022-11-22T10:44:42.414Z,95.92
2022-11-22T10:45:42.398Z,96.23
2022-11-22T10:46:42.487Z,92.47
2022-11-22T10:47:42.493Z,91.02
2022-11-22T10:48:42.371Z,90.28
2022-11-22T10:49:42.356Z,90.91
2022-11-22T10:50:42.352Z,89.87
2022-11-22T10:51:42.335Z,93.16
2022-11-22T10:52:42.330Z,92.12
2022-11-22T10:53:42.307Z,91.39
2022-11-22T10:54:42.302Z,91.39
2022-11-22T10:55:42.289Z,92.06
2022-11-22T10:56:49.816Z,92.06
2022-11-22T10:57:49.808Z,92.27
2022-11-22T10:58:42.265Z,94.67
2022-11-22T10:59:42.250Z,92.47
2022-11-22T11:00:42.279Z,91.08
2022-11-22T11:01:49.767Z,86.32
2022-11-22T11:02:49.885Z,84.30
2022-11-22T11:03:49.741Z,85.97
2022-11-22T11:04:42.196Z,85.34
2022-11-22T11:06:15.675Z,83.95
2022-11-22T11:07:10.653Z,87.28
2022-11-22T11:07:43.190Z,87.84
2022-11-22T11:09:23.494Z,85.72
2022-11-22T11:10:43.205Z,83.95
2022-11-22T11:11:42.133Z,83.74
2022-11-22T11:12:42.200Z,83.84
2022-11-22T11:13:42.101Z,82.59
2022-11-22T11:14:42.096Z,83.01
2022-11-22T11:15:42.074Z,81.34
2022-11-22T11:16:42.065Z,81.65
2022-11-22T11:17:42.051Z,80.82
2022-11-22T11:18:42.161Z,79.98
2022-11-22T11:19:42.028Z,79.94
2022-11-22T11:20:42.259Z,79.84
2022-11-22T11:21:42.010Z,80.57
2022-11-22T11:23:13.162Z,80.99
2022-11-22T11:23:42.986Z,80.47
2022-11-22T11:24:41.985Z,81.30
2022-11-22T11:25:42.063Z,82.65
2022-11-22T11:26:41.968Z,83.32
2022-11-22T11:27:41.948Z,84.47
2022-11-22T11:28:42.023Z,87.18
2022-11-22T11:29:41.924Z,88.53
2022-11-22T11:30:41.908Z,90.83
2022-11-22T11:31:41.913Z,91.25
2022-11-22T11:32:41.888Z,90.83
2022-11-22T11:33:41.941Z,92.96
2022-11-22T11:34:42.047Z,92.33
2022-11-22T11:35:41.860Z,89.62
2022-11-22T11:36:41.861Z,87.32
2022-11-22T11:37:41.836Z,86.76
2022-11-22T11:38:41.820Z,85.10
2022-11-22T11:39:44.703Z,84.36
2022-11-22T11:40:41.806Z,83.88
2022-11-22T11:41:43.601Z,85.10
2022-11-22T11:42:41.782Z,84.92
2022-11-22T11:43:41.778Z,84.30
2022-11-22T11:44:41.764Z,83.74
2022-11-22T11:45:41.820Z,83.78
2022-11-22T11:46:41.745Z,83.88
2022-11-22T11:47:41.738Z,83.95
2022-11-22T11:48:41.722Z,82.07
2022-11-22T11:49:41.710Z,83.36
2022-11-22T11:50:41.822Z,83.95
2022-11-22T11:51:41.753Z,84.19
2022-11-22T11:52:41.674Z,84.78
2022-11-22T11:53:41.677Z,84.26
2022-11-22T11:54:41.657Z,83.22
2022-11-22T11:55:41.646Z,83.53
2022-11-22T11:56:41.644Z,83.63
2022-11-22T11:57:41.677Z,84.47
2022-11-22T11:58:41.614Z,85.10
2022-11-22T11:59:41.609Z,86.03
2022-11-22T12:00:41.593Z,85.82
2022-11-22T12:01:41.580Z,85.05
2022-11-22T12:02:41.690Z,83.74
2022-11-22T12:03:41.667Z,82.59
2022-11-22T12:04:41.548Z,83.84
2022-11-22T12:05:41.542Z,85.10
2022-11-22T12:06:41.659Z,87.63
2022-11-22T12:07:41.616Z,89.37
2022-11-22T12:08:41.511Z,91.77
2022-11-22T12:09:41.517Z,93.69
2022-11-22T12:10:41.481Z,94.21
2022-11-22T12:11:41.476Z,94.58
2022-11-22T12:12:41.479Z,97.97
2022-11-22T12:14:04.621Z,98.59
2022-11-22T12:15:09.198Z,96.55
2022-11-22T12:15:42.515Z,94.25
2022-11-22T12:16:41.417Z,91.18
2022-11-22T12:17:41.407Z,95.36
2022-11-22T12:18:41.431Z,95.46
2022-11-22T12:19:41.394Z,94.57
2022-11-22T12:20:41.378Z,90.66
2022-11-22T12:21:41.386Z,89.72
2022-11-22T12:22:50.242Z,88.12
2022-11-22T12:23:46.595Z,87.49
2022-11-22T12:24:52.595Z,86.35
2022-11-22T12:25:42.320Z,84.88
2022-11-22T12:26:41.323Z,85.20
2022-11-22T12:27:41.380Z,83.84
2022-11-22T12:28:41.289Z,85.10
2022-11-22T12:29:41.276Z,83.63
2022-11-22T12:30:41.281Z,83.63
2022-11-22T12:31:41.257Z,84.22
2022-11-22T12:32:41.250Z,83.84
2022-11-22T12:33:41.289Z,83.63
2022-11-22T12:34:41.240Z,84.16
2022-11-22T12:35:41.214Z,85.10
2022-11-22T12:36:41.220Z,83.63
2022-11-22T12:37:41.191Z,83.63
2022-11-22T12:38:41.300Z,83.42
2022-11-22T12:39:41.266Z,84.05
2022-11-22T12:40:41.159Z,83.95
2022-11-22T12:41:41.176Z,82.94
2022-11-22T12:42:41.150Z,83.63
2022-11-22T12:43:41.136Z,83.80
2022-11-22T12:44:41.118Z,82.38
2022-11-22T12:45:41.176Z,82.97
2022-11-22T12:46:41.093Z,83.11
2022-11-22T12:47:41.090Z,82.90
2022-11-22T12:48:44.578Z,83.63
2022-11-22T12:49:42.064Z,84.36
2022-11-22T12:50:41.053Z,86.24
2022-11-22T12:51:41.103Z,86.66
2022-11-22T12:52:41.047Z,84.47
2022-11-22T12:53:41.018Z,83.39
2022-11-22T12:54:41.131Z,82.17
2022-11-22T12:55:41.011Z,79.88
2022-11-22T12:56:40.999Z,80.09